createdAt,value
2019-06-15T00:01:22.053Z,14.20
2019-06-15T00:06:24.882Z,14.10
2019-06-15T00:11:27.727Z,14.10
2019-06-15T00:16:32.531Z,14.00
2019-06-15T00:21:35.208Z,14.00
2019-06-15T00:26:41.202Z,13.90
2019-06-15T00:31:43.907Z,13.80
2019-06-15T00:36:46.797Z,13.80
2019-06-15T00:41:50.016Z,13.80
2019-06-15T00:46:52.870Z,13.70
2019-06-15T00:51:55.639Z,13.70
2019-06-15T00:56:58.421Z,13.60
2019-06-15T01:02:02.165Z,13.60
2019-06-15T01:07:05.109Z,13.60
2019-06-15T01:12:08.034Z,13.60
2019-06-15T01:17:11.048Z,13.60
2019-06-15T01:22:13.848Z,13.60
2019-06-15T01:27:16.587Z,13.60
2019-06-15T01:32:19.303Z,13.50
2019-06-15T01:37:22.219Z,13.50
2019-06-15T01:42:24.999Z,13.40
2019-06-15T01:47:27.694Z,13.40
2019-06-15T01:52:30.587Z,13.40
2019-06-15T01:57:33.344Z,13.50
2019-06-15T02:02:36.051Z,13.50
2019-06-15T02:07:38.866Z,13.50
2019-06-15T02:12:41.587Z,13.40
2019-06-15T02:17:45.179Z,13.40
2019-06-15T02:22:48.020Z,13.40
2019-06-15T02:33:38.040Z,13.50
2019-06-15T02:44:41.008Z,13.60
2019-06-15T02:49:43.684Z,13.60
2019-06-15T02:54:46.445Z,13.80
2019-06-15T02:59:49.205Z,13.90
2019-06-15T03:04:52.066Z,14.00
2019-06-15T03:09:55.203Z,14.20
2019-06-15T03:14:58.034Z,14.40
2019-06-15T03:20:00.746Z,14.60
2019-06-15T03:25:04.067Z,14.70
2019-06-15T03:30:07.636Z,14.80
2019-06-15T03:35:10.560Z,14.90
2019-06-15T03:40:16.421Z,15.00
2019-06-15T03:45:19.187Z,15.00
2019-06-15T03:50:22.166Z,15.10
2019-06-15T03:55:24.936Z,15.20
2019-06-15T04:00:47.860Z,15.30
2019-06-15T04:05:50.507Z,15.30
2019-06-15T04:10:53.233Z,15.40
2019-06-15T04:15:55.891Z,15.40
2019-06-15T04:20:58.693Z,15.50
2019-06-15T04:26:01.472Z,15.70
2019-06-15T04:31:04.187Z,15.90
2019-06-15T04:36:06.804Z,16.00
2019-06-15T04:41:09.374Z,16.10
2019-06-15T04:46:12.122Z,16.20
2019-06-15T04:51:14.891Z,16.40
2019-06-15T04:56:18.764Z,16.50
2019-06-15T05:01:21.355Z,16.60
2019-06-15T05:06:24.109Z,16.80
2019-06-15T05:11:27.000Z,16.90
2019-06-15T05:16:29.697Z,17.00
2019-06-15T05:21:33.551Z,17.30
2019-06-15T05:26:36.280Z,17.80
2019-06-15T05:31:51.933Z,18.20
2019-06-15T05:36:54.651Z,18.30
2019-06-15T05:41:57.345Z,18.20
2019-06-15T05:47:05.728Z,18.30
2019-06-15T05:52:08.530Z,18.70
2019-06-15T05:57:21.145Z,19.00
2019-06-15T06:02:16.757Z,19.00
2019-06-15T06:07:20.234Z,19.10
2019-06-15T06:12:22.985Z,19.50
2019-06-15T06:17:25.813Z,19.90
2019-06-15T06:22:28.871Z,20.20
2019-06-15T06:27:36.387Z,20.30
2019-06-15T06:32:36.243Z,20.50
2019-06-15T06:37:40.590Z,20.60
2019-06-15T06:42:43.250Z,20.70
2019-06-15T06:47:46.009Z,20.70
2019-06-15T06:52:48.843Z,20.80
2019-06-15T06:57:54.837Z,21.00
2019-06-15T07:02:56.107Z,21.10
2019-06-15T07:08:04.925Z,21.20
2019-06-15T07:13:07.684Z,21.60
2019-06-15T07:18:10.351Z,22.00
2019-06-15T07:23:13.059Z,22.40
2019-06-15T07:28:15.812Z,22.70
2019-06-15T07:33:18.541Z,23.00
2019-06-15T07:38:21.194Z,23.20
2019-06-15T07:43:23.896Z,23.50
2019-06-15T07:48:26.597Z,23.70
2019-06-15T07:53:29.520Z,23.70
2019-06-15T07:58:32.268Z,24.10
2019-06-15T08:03:34.946Z,24.40
2019-06-15T08:08:37.830Z,24.60
2019-06-15T08:13:40.588Z,24.60
2019-06-15T08:18:43.194Z,24.70
2019-06-15T08:23:45.888Z,24.70
2019-06-15T08:28:48.605Z,24.90
2019-06-15T08:33:51.366Z,25.20
2019-06-15T08:38:54.039Z,25.60
2019-06-15T08:43:56.616Z,25.60
2019-06-15T08:49:00.611Z,25.30
2019-06-15T08:54:03.468Z,25.00
2019-06-15T08:59:06.161Z,24.90
2019-06-15T09:04:08.815Z,25.20
2019-06-15T09:09:11.563Z,25.40
2019-06-15T09:14:14.224Z,25.80
2019-06-15T09:19:17.004Z,25.90
2019-06-15T09:24:19.829Z,26.00
2019-06-15T09:29:22.542Z,25.80
2019-06-15T09:34:25.371Z,26.20
2019-06-15T09:39:28.342Z,26.70
2019-06-15T09:44:31.297Z,26.60
2019-06-15T09:49:34.355Z,26.70
2019-06-15T09:54:37.058Z,27.20
2019-06-15T09:59:39.675Z,27.80
2019-06-15T10:04:42.512Z,28.20
2019-06-15T10:09:46.337Z,28.50
2019-06-15T10:14:50.051Z,28.80
2019-06-15T10:19:52.816Z,28.80
2019-06-15T10:24:58.678Z,28.80
2019-06-15T10:30:01.632Z,28.70
2019-06-15T10:35:04.714Z,29.00
2019-06-15T10:40:08.804Z,28.80
2019-06-15T10:45:11.790Z,29.20
2019-06-15T10:50:14.967Z,29.70
2019-06-15T10:55:18.166Z,29.90
2019-06-15T11:00:21.472Z,29.80
2019-06-15T11:05:24.246Z,29.70
2019-06-15T11:10:54.064Z,29.30
2019-06-15T11:15:57.428Z,29.20
2019-06-15T11:21:00.501Z,29.30
2019-06-15T11:26:03.373Z,29.50
2019-06-15T11:31:06.107Z,29.40
2019-06-15T11:36:08.963Z,29.10
2019-06-15T11:41:11.772Z,29.30
2019-06-15T11:46:14.392Z,29.30
2019-06-15T11:51:17.000Z,29.30
2019-06-15T11:56:19.759Z,29.10
2019-06-15T12:01:22.360Z,29.20
2019-06-15T12:06:25.056Z,29.70
2019-06-15T12:11:27.864Z,30.70
2019-06-15T12:16:30.679Z,31.20
2019-06-15T12:21:33.463Z,31.60
2019-06-15T12:26:36.183Z,31.80
2019-06-15T12:31:38.842Z,32.10
2019-06-15T12:36:41.474Z,32.30
2019-06-15T12:41:44.553Z,32.20
2019-06-15T12:46:47.176Z,31.90
2019-06-15T12:51:49.772Z,31.50
2019-06-15T12:56:52.495Z,31.10
2019-06-15T13:01:56.540Z,30.50
2019-06-15T13:07:00.246Z,30.10
2019-06-15T13:12:03.445Z,30.00
2019-06-15T13:17:06.132Z,29.80
2019-06-15T13:22:08.847Z,29.50
2019-06-15T13:27:11.552Z,29.70
2019-06-15T13:32:15.123Z,29.50
2019-06-15T13:37:17.777Z,29.60
2019-06-15T13:42:20.876Z,29.70
2019-06-15T13:47:23.582Z,29.50
2019-06-15T13:52:26.317Z,29.50
2019-06-15T13:57:30.124Z,29.10
2019-06-15T14:02:32.930Z,28.90
2019-06-15T14:07:35.868Z,28.70
2019-06-15T14:12:38.639Z,28.60
2019-06-15T14:17:41.360Z,28.40
2019-06-15T14:22:44.054Z,28.30
2019-06-15T14:27:46.753Z,28.10
2019-06-15T14:32:49.469Z,28.00
2019-06-15T14:37:52.255Z,27.90
2019-06-15T14:42:55.067Z,28.00
2019-06-15T14:47:58.270Z,27.40
2019-06-15T14:53:01.104Z,26.00
2019-06-15T14:58:06.205Z,25.40
2019-06-15T15:03:08.816Z,24.80
2019-06-15T15:08:11.714Z,24.40
2019-06-15T15:13:14.468Z,24.40
2019-06-15T15:18:17.295Z,24.30
2019-06-15T15:23:20.216Z,24.00
2019-06-15T15:28:23.187Z,23.90
2019-06-15T15:33:26.030Z,23.70
2019-06-15T15:38:28.884Z,23.40
2019-06-15T15:43:31.655Z,23.30
2019-06-15T15:48:36.361Z,23.10
2019-06-15T15:53:39.172Z,22.60
2019-06-15T15:58:41.875Z,22.20
2019-06-15T16:03:47.249Z,21.90
2019-06-15T16:08:49.367Z,21.70
2019-06-15T16:14:12.190Z,21.50
2019-06-15T16:19:28.864Z,21.30
2019-06-15T16:24:31.814Z,21.20
2019-06-15T16:29:46.995Z,21.10
2019-06-15T16:34:50.023Z,20.90
2019-06-15T16:39:54.068Z,21.00
2019-06-15T16:44:57.652Z,21.30
2019-06-15T16:50:01.502Z,21.30
2019-06-15T16:55:06.572Z,21.50
2019-06-15T17:00:17.981Z,21.60
2019-06-15T17:05:20.790Z,21.70
2019-06-15T17:10:36.297Z,21.80
2019-06-15T17:15:39.183Z,21.90
2019-06-15T17:20:51.339Z,21.90
2019-06-15T17:25:54.104Z,22.00
2019-06-15T17:31:00.541Z,22.00
2019-06-15T17:36:03.559Z,22.00
2019-06-15T17:41:07.020Z,21.90
2019-06-15T17:46:09.834Z,21.80
2019-06-15T17:51:16.086Z,21.70
2019-06-15T17:56:18.800Z,21.60
2019-06-15T18:01:21.564Z,21.50
2019-06-15T18:06:26.683Z,21.50
2019-06-15T18:11:29.092Z,21.50
2019-06-15T18:16:31.888Z,21.70
2019-06-15T18:21:40.287Z,21.80
2019-06-15T18:26:39.269Z,21.90
2019-06-15T18:31:42.289Z,21.60
2019-06-15T18:36:45.159Z,21.50
2019-06-15T18:41:48.817Z,21.40
2019-06-15T18:46:51.633Z,21.30
2019-06-15T18:51:56.588Z,21.20
2019-06-15T18:56:58.885Z,21.00
2019-06-15T19:02:01.638Z,20.90
2019-06-15T19:07:06.622Z,20.80
2019-06-15T19:12:10.052Z,20.70
2019-06-15T19:17:16.496Z,20.70
2019-06-15T19:22:19.481Z,20.70
2019-06-15T19:27:25.945Z,20.70
2019-06-15T19:32:28.981Z,20.60
2019-06-15T19:37:34.108Z,20.50
2019-06-15T19:42:37.783Z,20.40
2019-06-15T19:47:40.964Z,20.20
2019-06-15T19:52:46.005Z,20.10
2019-06-15T19:57:48.713Z,20.10
2019-06-15T20:02:57.144Z,20.00
2019-06-15T20:07:59.084Z,20.00
2019-06-15T20:13:02.042Z,19.90
2019-06-15T20:18:06.883Z,19.90
2019-06-15T20:23:09.530Z,19.90
2019-06-15T20:28:12.502Z,19.80
2019-06-15T20:33:16.641Z,19.90
2019-06-15T20:38:19.640Z,19.90
2019-06-15T20:43:27.088Z,19.80
2019-06-15T20:48:29.323Z,19.90
2019-06-15T20:53:32.611Z,19.90
2019-06-15T20:58:37.283Z,19.80
2019-06-15T21:03:43.039Z,19.80
2019-06-15T21:08:46.794Z,19.80
2019-06-15T21:13:49.324Z,19.80
2019-06-15T21:18:52.100Z,19.80
2019-06-15T21:23:56.986Z,19.70
2019-06-15T21:28:59.659Z,19.70
2019-06-15T21:34:02.445Z,19.60
2019-06-15T21:39:06.906Z,19.50
2019-06-15T21:44:10.117Z,19.50
2019-06-15T21:49:12.912Z,19.50
2019-06-15T21:54:15.907Z,19.50
2019-06-15T21:59:18.569Z,19.50
2019-06-15T22:04:21.313Z,19.50
2019-06-15T22:09:26.365Z,19.50
2019-06-15T22:14:28.570Z,19.50
2019-06-15T22:19:31.375Z,19.50
2019-06-15T22:24:36.137Z,19.50
2019-06-15T22:29:38.583Z,19.40
2019-06-15T22:34:41.324Z,19.40
2019-06-15T22:39:46.532Z,19.30
2019-06-15T22:44:48.808Z,19.30
2019-06-15T22:49:51.433Z,19.40
2019-06-15T22:54:56.740Z,19.40
2019-06-15T22:59:59.020Z,19.30
2019-06-15T23:05:01.946Z,19.30
2019-06-15T23:10:10.443Z,19.30
2019-06-15T23:15:13.833Z,19.20
2019-06-15T23:20:26.834Z,19.30
2019-06-15T23:25:29.459Z,19.30
2019-06-15T23:30:32.195Z,19.30
2019-06-15T23:35:41.800Z,19.20
2019-06-15T23:40:46.716Z,19.20
2019-06-15T23:45:49.262Z,19.10
2019-06-15T23:50:51.953Z,19.20
2019-06-15T23:55:56.844Z,19.10
